sensor_id;sensor_type;location;lat;lon;timestamp;P1;durP1;ratioP1;P2;durP2;ratioP2
61017;SDS011;48171;51.550;5.434;2022-09-09T00:00:22;3.95;;;1.90;;
61017;SDS011;48171;51.550;5.434;2022-09-09T00:03:01;2.50;;;1.60;;
61017;SDS011;48171;51.550;5.434;2022-09-09T00:05:38;4.93;;;1.88;;
61017;SDS011;48171;51.550;5.434;2022-09-09T00:08:15;2.38;;;1.50;;
61017;SDS011;48171;51.550;5.434;2022-09-09T00:10:54;4.05;;;1.70;;
61017;SDS011;48171;51.550;5.434;2022-09-09T00:13:29;3.22;;;1.60;;
61017;SDS011;48171;51.550;5.434;2022-09-09T00:21:33;3.42;;;1.60;;
61017;SDS011;48171;51.550;5.434;2022-09-09T00:24:11;3.15;;;1.52;;
61017;SDS011;48171;51.550;5.434;2022-09-09T00:26:51;3.10;;;1.60;;
61017;SDS011;48171;51.550;5.434;2022-09-09T00:29:31;3.65;;;1.60;;
61017;SDS011;48171;51.550;5.434;2022-09-09T00:32:13;3.28;;;1.73;;
61017;SDS011;48171;51.550;5.434;2022-09-09T00:34:47;4.35;;;1.63;;
61017;SDS011;48171;51.550;5.434;2022-09-09T00:37:15;3.15;;;1.50;;
61017;SDS011;48171;51.550;5.434;2022-09-09T00:39:42;3.42;;;1.70;;
61017;SDS011;48171;51.550;5.434;2022-09-09T00:44:48;4.18;;;1.67;;
61017;SDS011;48171;51.550;5.434;2022-09-09T00:55:27;5.55;;;1.70;;
61017;SDS011;48171;51.550;5.434;2022-09-09T00:58:06;3.88;;;1.70;;
61017;SDS011;48171;51.550;5.434;2022-09-09T01:00:43;4.15;;;1.80;;
61017;SDS011;48171;51.550;5.434;2022-09-09T01:03:20;4.43;;;1.70;;
61017;SDS011;48171;51.550;5.434;2022-09-09T01:16:56;6.72;;;1.90;;
61017;SDS011;48171;51.550;5.434;2022-09-09T01:22:17;3.30;;;1.85;;
61017;SDS011;48171;51.550;5.434;2022-09-09T01:27:44;3.55;;;1.75;;
61017;SDS011;48171;51.550;5.434;2022-09-09T01:30:13;8.05;;;1.90;;
61017;SDS011;48171;51.550;5.434;2022-09-09T01:32:42;7.38;;;1.90;;
61017;SDS011;48171;51.550;5.434;2022-09-09T01:35:15;3.15;;;1.70;;
61017;SDS011;48171;51.550;5.434;2022-09-09T01:37:57;4.35;;;1.75;;
61017;SDS011;48171;51.550;5.434;2022-09-09T01:40:23;4.90;;;1.70;;
61017;SDS011;48171;51.550;5.434;2022-09-09T01:42:49;4.07;;;1.90;;
61017;SDS011;48171;51.550;5.434;2022-09-09T01:45:15;4.55;;;2.10;;
61017;SDS011;48171;51.550;5.434;2022-09-09T01:47:41;5.28;;;2.13;;
61017;SDS011;48171;51.550;5.434;2022-09-09T01:50:07;4.18;;;2.00;;
61017;SDS011;48171;51.550;5.434;2022-09-09T01:52:36;5.18;;;2.03;;
61017;SDS011;48171;51.550;5.434;2022-09-09T01:55:02;6.55;;;2.10;;
61017;SDS011;48171;51.550;5.434;2022-09-09T01:57:33;5.38;;;2.00;;
61017;SDS011;48171;51.550;5.434;2022-09-09T02:00:19;5.93;;;2.15;;
61017;SDS011;48171;51.550;5.434;2022-09-09T02:08:08;7.07;;;2.70;;
61017;SDS011;48171;51.550;5.434;2022-09-09T02:10:44;6.60;;;2.60;;
61017;SDS011;48171;51.550;5.434;2022-09-09T02:13:18;4.05;;;2.53;;
61017;SDS011;48171;51.550;5.434;2022-09-09T02:15:52;7.90;;;2.85;;
61017;SDS011;48171;51.550;5.434;2022-09-09T02:18:40;6.35;;;2.30;;
61017;SDS011;48171;51.550;5.434;2022-09-09T02:21:16;6.53;;;2.50;;
61017;SDS011;48171;51.550;5.434;2022-09-09T02:23:42;5.30;;;2.40;;
61017;SDS011;48171;51.550;5.434;2022-09-09T02:26:10;6.80;;;2.60;;
61017;SDS011;48171;51.550;5.434;2022-09-09T02:28:38;8.50;;;3.10;;
61017;SDS011;48171;51.550;5.434;2022-09-09T02:31:05;6.78;;;2.63;;
61017;SDS011;48171;51.550;5.434;2022-09-09T02:33:33;8.45;;;2.70;;
61017;SDS011;48171;51.550;5.434;2022-09-09T02:36:04;6.65;;;2.92;;
61017;SDS011;48171;51.550;5.434;2022-09-09T02:38:33;6.55;;;2.65;;
61017;SDS011;48171;51.550;5.434;2022-09-09T02:41:03;7.20;;;2.88;;
61017;SDS011;48171;51.550;5.434;2022-09-09T02:43:32;6.80;;;2.50;;
61017;SDS011;48171;51.550;5.434;2022-09-09T02:54:04;6.80;;;2.90;;
61017;SDS011;48171;51.550;5.434;2022-09-09T02:56:34;7.50;;;3.15;;
61017;SDS011;48171;51.550;5.434;2022-09-09T02:59:05;6.82;;;2.85;;
61017;SDS011;48171;51.550;5.434;2022-09-09T03:01:30;8.60;;;2.92;;
61017;SDS011;48171;51.550;5.434;2022-09-09T03:03:56;7.10;;;2.90;;
61017;SDS011;48171;51.550;5.434;2022-09-09T03:06:22;6.15;;;2.85;;
61017;SDS011;48171;51.550;5.434;2022-09-09T03:08:47;6.60;;;2.88;;
61017;SDS011;48171;51.550;5.434;2022-09-09T03:11:14;7.65;;;2.97;;
61017;SDS011;48171;51.550;5.434;2022-09-09T03:13:39;7.75;;;2.90;;
61017;SDS011;48171;51.550;5.434;2022-09-09T03:16:04;9.68;;;3.05;;
61017;SDS011;48171;51.550;5.434;2022-09-09T03:18:30;7.93;;;3.13;;
61017;SDS011;48171;51.550;5.434;2022-09-09T03:20:57;5.70;;;2.60;;
61017;SDS011;48171;51.550;5.434;2022-09-09T03:23:24;7.15;;;2.80;;
61017;SDS011;48171;51.550;5.434;2022-09-09T03:25:50;4.93;;;2.67;;
61017;SDS011;48171;51.550;5.434;2022-09-09T03:28:16;7.88;;;2.85;;
61017;SDS011;48171;51.550;5.434;2022-09-09T03:30:41;9.07;;;2.70;;
61017;SDS011;48171;51.550;5.434;2022-09-09T03:33:06;8.60;;;2.97;;
61017;SDS011;48171;51.550;5.434;2022-09-09T03:35:32;5.60;;;2.70;;
61017;SDS011;48171;51.550;5.434;2022-09-09T03:37:57;8.27;;;2.70;;
61017;SDS011;48171;51.550;5.434;2022-09-09T03:40:22;6.63;;;2.53;;
61017;SDS011;48171;51.550;5.434;2022-09-09T03:42:47;8.63;;;2.83;;
61017;SDS011;48171;51.550;5.434;2022-09-09T03:45:13;7.15;;;2.97;;
61017;SDS011;48171;51.550;5.434;2022-09-09T03:47:39;7.07;;;3.08;;
61017;SDS011;48171;51.550;5.434;2022-09-09T03:50:05;6.22;;;2.35;;
61017;SDS011;48171;51.550;5.434;2022-09-09T03:52:37;10.98;;;2.80;;
61017;SDS011;48171;51.550;5.434;2022-09-09T03:55:03;7.53;;;3.20;;
61017;SDS011;48171;51.550;5.434;2022-09-09T03:57:29;7.55;;;2.40;;
61017;SDS011;48171;51.550;5.434;2022-09-09T03:59:54;7.35;;;2.20;;
61017;SDS011;48171;51.550;5.434;2022-09-09T04:02:20;5.78;;;2.60;;
61017;SDS011;48171;51.550;5.434;2022-09-09T04:04:46;5.75;;;2.63;;
61017;SDS011;48171;51.550;5.434;2022-09-09T04:07:11;5.78;;;2.53;;
61017;SDS011;48171;51.550;5.434;2022-09-09T04:09:36;6.00;;;2.67;;
61017;SDS011;48171;51.550;5.434;2022-09-09T04:12:02;7.90;;;2.50;;
61017;SDS011;48171;51.550;5.434;2022-09-09T04:14:27;11.02;;;2.60;;
61017;SDS011;48171;51.550;5.434;2022-09-09T04:16:53;6.47;;;2.67;;
61017;SDS011;48171;51.550;5.434;2022-09-09T04:19:20;7.93;;;2.67;;
61017;SDS011;48171;51.550;5.434;2022-09-09T04:21:45;6.70;;;3.47;;
61017;SDS011;48171;51.550;5.434;2022-09-09T04:24:10;4.75;;;2.70;;
61017;SDS011;48171;51.550;5.434;2022-09-09T04:26:36;11.15;;;3.22;;
61017;SDS011;48171;51.550;5.434;2022-09-09T04:29:02;6.80;;;2.60;;
61017;SDS011;48171;51.550;5.434;2022-09-09T04:31:28;9.05;;;3.30;;
61017;SDS011;48171;51.550;5.434;2022-09-09T04:33:54;8.30;;;2.75;;
61017;SDS011;48171;51.550;5.434;2022-09-09T04:36:19;8.48;;;2.95;;
61017;SDS011;48171;51.550;5.434;2022-09-09T04:38:45;7.07;;;2.58;;
61017;SDS011;48171;51.550;5.434;2022-09-09T04:41:11;10.32;;;3.15;;
61017;SDS011;48171;51.550;5.434;2022-09-09T04:43:37;8.50;;;2.70;;
61017;SDS011;48171;51.550;5.434;2022-09-09T04:46:04;9.38;;;2.63;;
61017;SDS011;48171;51.550;5.434;2022-09-09T04:48:30;10.75;;;3.03;;
61017;SDS011;48171;51.550;5.434;2022-09-09T04:53:31;7.03;;;2.78;;
61017;SDS011;48171;51.550;5.434;2022-09-09T04:56:05;11.30;;;3.03;;
61017;SDS011;48171;51.550;5.434;2022-09-09T04:58:32;9.10;;;2.70;;
61017;SDS011;48171;51.550;5.434;2022-09-09T05:01:04;11.98;;;3.10;;
61017;SDS011;48171;51.550;5.434;2022-09-09T05:03:37;11.63;;;2.58;;
61017;SDS011;48171;51.550;5.434;2022-09-09T05:06:06;9.43;;;2.65;;
61017;SDS011;48171;51.550;5.434;2022-09-09T05:08:39;9.85;;;3.28;;
61017;SDS011;48171;51.550;5.434;2022-09-09T05:13:44;8.13;;;2.97;;
61017;SDS011;48171;51.550;5.434;2022-09-09T05:16:10;9.95;;;2.88;;
61017;SDS011;48171;51.550;5.434;2022-09-09T05:18:36;9.23;;;3.50;;
61017;SDS011;48171;51.550;5.434;2022-09-09T05:21:02;7.65;;;2.70;;
61017;SDS011;48171;51.550;5.434;2022-09-09T05:23:27;7.32;;;2.67;;
61017;SDS011;48171;51.550;5.434;2022-09-09T05:25:56;10.48;;;3.30;;
61017;SDS011;48171;51.550;5.434;2022-09-09T05:30:56;10.35;;;2.70;;
61017;SDS011;48171;51.550;5.434;2022-09-09T05:33:33;10.57;;;3.03;;
61017;SDS011;48171;51.550;5.434;2022-09-09T05:36:00;11.60;;;3.28;;
61017;SDS011;48171;51.550;5.434;2022-09-09T05:38:28;13.23;;;2.90;;
61017;SDS011;48171;51.550;5.434;2022-09-09T05:40:54;15.93;;;2.78;;
61017;SDS011;48171;51.550;5.434;2022-09-09T05:43:21;8.32;;;2.60;;
61017;SDS011;48171;51.550;5.434;2022-09-09T05:45:47;7.30;;;2.95;;
61017;SDS011;48171;51.550;5.434;2022-09-09T05:48:14;11.93;;;3.40;;
61017;SDS011;48171;51.550;5.434;2022-09-09T05:50:41;9.82;;;2.85;;
61017;SDS011;48171;51.550;5.434;2022-09-09T05:53:07;10.68;;;3.25;;
61017;SDS011;48171;51.550;5.434;2022-09-09T05:55:33;11.70;;;3.05;;
61017;SDS011;48171;51.550;5.434;2022-09-09T05:57:58;7.68;;;3.05;;
61017;SDS011;48171;51.550;5.434;2022-09-09T06:00:23;7.03;;;2.75;;
61017;SDS011;48171;51.550;5.434;2022-09-09T06:02:52;11.48;;;2.63;;
61017;SDS011;48171;51.550;5.434;2022-09-09T06:05:17;7.32;;;2.78;;
61017;SDS011;48171;51.550;5.434;2022-09-09T06:07:43;15.55;;;4.00;;
61017;SDS011;48171;51.550;5.434;2022-09-09T06:10:09;8.27;;;3.05;;
61017;SDS011;48171;51.550;5.434;2022-09-09T06:12:35;10.43;;;2.70;;
61017;SDS011;48171;51.550;5.434;2022-09-09T06:15:00;7.68;;;2.75;;
61017;SDS011;48171;51.550;5.434;2022-09-09T06:17:26;14.05;;;3.50;;
61017;SDS011;48171;51.550;5.434;2022-09-09T06:19:51;9.80;;;3.13;;
61017;SDS011;48171;51.550;5.434;2022-09-09T06:22:17;11.75;;;3.22;;
61017;SDS011;48171;51.550;5.434;2022-09-09T06:24:42;11.30;;;3.10;;
61017;SDS011;48171;51.550;5.434;2022-09-09T06:27:09;8.82;;;3.17;;
61017;SDS011;48171;51.550;5.434;2022-09-09T06:29:35;9.00;;;2.95;;
61017;SDS011;48171;51.550;5.434;2022-09-09T06:32:01;10.75;;;3.33;;
61017;SDS011;48171;51.550;5.434;2022-09-09T06:34:27;11.38;;;3.47;;
61017;SDS011;48171;51.550;5.434;2022-09-09T06:36:53;10.75;;;3.33;;
61017;SDS011;48171;51.550;5.434;2022-09-09T06:39:19;11.68;;;3.80;;
61017;SDS011;48171;51.550;5.434;2022-09-09T06:41:44;12.25;;;3.38;;
61017;SDS011;48171;51.550;5.434;2022-09-09T06:44:09;12.20;;;3.58;;
61017;SDS011;48171;51.550;5.434;2022-09-09T06:46:36;13.68;;;3.50;;
61017;SDS011;48171;51.550;5.434;2022-09-09T06:49:03;14.77;;;3.75;;
61017;SDS011;48171;51.550;5.434;2022-09-09T06:51:29;8.02;;;3.58;;
61017;SDS011;48171;51.550;5.434;2022-09-09T06:53:57;10.13;;;3.92;;
61017;SDS011;48171;51.550;5.434;2022-09-09T06:56:28;12.50;;;3.28;;
61017;SDS011;48171;51.550;5.434;2022-09-09T06:58:56;11.75;;;3.58;;
61017;SDS011;48171;51.550;5.434;2022-09-09T07:01:24;12.57;;;3.72;;
61017;SDS011;48171;51.550;5.434;2022-09-09T07:03:55;14.15;;;3.67;;
61017;SDS011;48171;51.550;5.434;2022-09-09T07:06:25;12.57;;;3.45;;
61017;SDS011;48171;51.550;5.434;2022-09-09T07:08:55;12.77;;;4.15;;
61017;SDS011;48171;51.550;5.434;2022-09-09T07:11:29;12.93;;;3.83;;
61017;SDS011;48171;51.550;5.434;2022-09-09T07:13:56;15.57;;;3.95;;
61017;SDS011;48171;51.550;5.434;2022-09-09T07:16:22;13.32;;;4.00;;
61017;SDS011;48171;51.550;5.434;2022-09-09T07:18:52;11.68;;;4.38;;
61017;SDS011;48171;51.550;5.434;2022-09-09T07:21:22;15.48;;;4.10;;
61017;SDS011;48171;51.550;5.434;2022-09-09T07:23:49;10.90;;;3.75;;
61017;SDS011;48171;51.550;5.434;2022-09-09T07:26:16;12.07;;;3.65;;
61017;SDS011;48171;51.550;5.434;2022-09-09T07:28:44;12.45;;;3.63;;
61017;SDS011;48171;51.550;5.434;2022-09-09T07:31:14;9.68;;;3.30;;
61017;SDS011;48171;51.550;5.434;2022-09-09T07:33:41;13.95;;;4.35;;
61017;SDS011;48171;51.550;5.434;2022-09-09T07:36:08;11.65;;;3.70;;
61017;SDS011;48171;51.550;5.434;2022-09-09T07:38:50;16.00;;;3.88;;
61017;SDS011;48171;51.550;5.434;2022-09-09T07:41:19;16.20;;;3.60;;
61017;SDS011;48171;51.550;5.434;2022-09-09T07:43:45;11.52;;;3.90;;
61017;SDS011;48171;51.550;5.434;2022-09-09T07:46:13;11.48;;;3.40;;
61017;SDS011;48171;51.550;5.434;2022-09-09T07:48:43;16.00;;;4.25;;
61017;SDS011;48171;51.550;5.434;2022-09-09T07:51:11;16.02;;;3.85;;
61017;SDS011;48171;51.550;5.434;2022-09-09T07:53:42;11.60;;;3.60;;
61017;SDS011;48171;51.550;5.434;2022-09-09T07:56:09;14.20;;;3.33;;
61017;SDS011;48171;51.550;5.434;2022-09-09T07:58:39;10.82;;;3.72;;
61017;SDS011;48171;51.550;5.434;2022-09-09T08:01:06;9.82;;;3.30;;
61017;SDS011;48171;51.550;5.434;2022-09-09T08:03:33;9.88;;;3.40;;
61017;SDS011;48171;51.550;5.434;2022-09-09T08:06:02;11.43;;;3.67;;
61017;SDS011;48171;51.550;5.434;2022-09-09T08:08:29;12.10;;;3.90;;
61017;SDS011;48171;51.550;5.434;2022-09-09T08:11:01;11.32;;;3.10;;
61017;SDS011;48171;51.550;5.434;2022-09-09T08:13:29;8.30;;;3.25;;
61017;SDS011;48171;51.550;5.434;2022-09-09T08:16:02;15.40;;;3.45;;
61017;SDS011;48171;51.550;5.434;2022-09-09T08:18:32;10.77;;;3.70;;
61017;SDS011;48171;51.550;5.434;2022-09-09T08:20:57;13.25;;;3.72;;
61017;SDS011;48171;51.550;5.434;2022-09-09T08:23:23;13.80;;;3.20;;
61017;SDS011;48171;51.550;5.434;2022-09-09T08:25:48;11.20;;;2.80;;
61017;SDS011;48171;51.550;5.434;2022-09-09T08:28:15;12.02;;;3.30;;
61017;SDS011;48171;51.550;5.434;2022-09-09T08:30:40;9.30;;;3.15;;
61017;SDS011;48171;51.550;5.434;2022-09-09T08:33:06;12.45;;;3.30;;
61017;SDS011;48171;51.550;5.434;2022-09-09T08:35:32;12.68;;;3.58;;
61017;SDS011;48171;51.550;5.434;2022-09-09T08:37:58;12.85;;;3.45;;
61017;SDS011;48171;51.550;5.434;2022-09-09T08:40:25;10.82;;;3.03;;
61017;SDS011;48171;51.550;5.434;2022-09-09T08:42:54;9.82;;;3.40;;
61017;SDS011;48171;51.550;5.434;2022-09-09T08:45:34;7.45;;;3.00;;
61017;SDS011;48171;51.550;5.434;2022-09-09T08:48:36;8.07;;;3.00;;
61017;SDS011;48171;51.550;5.434;2022-09-09T08:50:58;11.88;;;3.25;;
61017;SDS011;48171;51.550;5.434;2022-09-09T08:53:30;11.02;;;3.42;;
61017;SDS011;48171;51.550;5.434;2022-09-09T08:56:39;10.20;;;3.43;;
61017;SDS011;48171;51.550;5.434;2022-09-09T08:58:59;8.73;;;3.30;;
61017;SDS011;48171;51.550;5.434;2022-09-09T09:01:45;11.68;;;3.28;;
61017;SDS011;48171;51.550;5.434;2022-09-09T09:12:24;10.75;;;3.30;;
61017;SDS011;48171;51.550;5.434;2022-09-09T09:14:52;11.50;;;3.38;;
61017;SDS011;48171;51.550;5.434;2022-09-09T09:17:20;11.65;;;3.63;;
61017;SDS011;48171;51.550;5.434;2022-09-09T09:19:48;8.30;;;3.17;;
61017;SDS011;48171;51.550;5.434;2022-09-09T09:22:18;9.23;;;3.00;;
61017;SDS011;48171;51.550;5.434;2022-09-09T09:27:21;13.95;;;3.25;;
61017;SDS011;48171;51.550;5.434;2022-09-09T09:29:55;7.30;;;3.35;;
61017;SDS011;48171;51.550;5.434;2022-09-09T09:32:23;7.82;;;3.38;;
61017;SDS011;48171;51.550;5.434;2022-09-09T09:34:51;8.90;;;3.20;;
61017;SDS011;48171;51.550;5.434;2022-09-09T09:37:30;8.13;;;2.92;;
61017;SDS011;48171;51.550;5.434;2022-09-09T09:40:12;10.93;;;3.05;;
61017;SDS011;48171;51.550;5.434;2022-09-09T09:42:49;9.43;;;3.08;;
61017;SDS011;48171;51.550;5.434;2022-09-09T09:48:10;11.05;;;3.28;;
61017;SDS011;48171;51.550;5.434;2022-09-09T09:56:01;12.82;;;3.92;;
61017;SDS011;48171;51.550;5.434;2022-09-09T09:58:31;10.30;;;3.13;;
61017;SDS011;48171;51.550;5.434;2022-09-09T10:00:59;14.75;;;3.53;;
61017;SDS011;48171;51.550;5.434;2022-09-09T10:03:32;18.02;;;3.13;;
61017;SDS011;48171;51.550;5.434;2022-09-09T10:06:02;12.02;;;3.35;;
61017;SDS011;48171;51.550;5.434;2022-09-09T10:08:28;13.77;;;3.63;;
61017;SDS011;48171;51.550;5.434;2022-09-09T10:11:02;7.85;;;3.15;;
61017;SDS011;48171;51.550;5.434;2022-09-09T10:16:17;8.68;;;2.97;;
61017;SDS011;48171;51.550;5.434;2022-09-09T10:19:10;10.77;;;3.00;;
61017;SDS011;48171;51.550;5.434;2022-09-09T10:30:58;11.63;;;3.17;;
61017;SDS011;48171;51.550;5.434;2022-09-09T10:36:24;8.70;;;3.42;;
61017;SDS011;48171;51.550;5.434;2022-09-09T10:39:04;14.13;;;3.60;;
61017;SDS011;48171;51.550;5.434;2022-09-09T10:44:38;13.30;;;3.28;;
61017;SDS011;48171;51.550;5.434;2022-09-09T10:52:30;10.52;;;3.38;;
61017;SDS011;48171;51.550;5.434;2022-09-09T10:55:10;9.65;;;3.78;;
61017;SDS011;48171;51.550;5.434;2022-09-09T11:00:17;10.98;;;4.15;;
61017;SDS011;48171;51.550;5.434;2022-09-09T11:02:45;11.07;;;3.65;;
61017;SDS011;48171;51.550;5.434;2022-09-09T11:05:30;12.38;;;4.38;;
61017;SDS011;48171;51.550;5.434;2022-09-09T11:08:05;11.00;;;3.33;;
61017;SDS011;48171;51.550;5.434;2022-09-09T11:10:39;10.25;;;3.60;;
61017;SDS011;48171;51.550;5.434;2022-09-09T11:13:13;9.02;;;3.53;;
61017;SDS011;48171;51.550;5.434;2022-09-09T11:15:43;11.40;;;3.63;;
61017;SDS011;48171;51.550;5.434;2022-09-09T11:18:16;11.45;;;3.33;;
61017;SDS011;48171;51.550;5.434;2022-09-09T11:20:44;7.20;;;3.70;;
61017;SDS011;48171;51.550;5.434;2022-09-09T11:23:17;10.65;;;3.90;;
61017;SDS011;48171;51.550;5.434;2022-09-09T11:25:57;12.07;;;3.50;;
61017;SDS011;48171;51.550;5.434;2022-09-09T11:31:39;9.02;;;3.50;;
61017;SDS011;48171;51.550;5.434;2022-09-09T11:34:14;8.40;;;3.42;;
61017;SDS011;48171;51.550;5.434;2022-09-09T11:37:04;8.85;;;3.30;;
61017;SDS011;48171;51.550;5.434;2022-09-09T11:43:00;6.90;;;3.33;;
61017;SDS011;48171;51.550;5.434;2022-09-09T11:45:29;13.13;;;3.50;;
61017;SDS011;48171;51.550;5.434;2022-09-09T11:47:56;10.60;;;3.53;;
61017;SDS011;48171;51.550;5.434;2022-09-09T11:52:51;8.60;;;3.20;;
61017;SDS011;48171;51.550;5.434;2022-09-09T11:55:29;6.63;;;3.15;;
61017;SDS011;48171;51.550;5.434;2022-09-09T11:58:01;10.50;;;3.85;;
61017;SDS011;48171;51.550;5.434;2022-09-09T12:00:37;8.85;;;3.53;;
61017;SDS011;48171;51.550;5.434;2022-09-09T12:06:20;9.82;;;3.67;;
61017;SDS011;48171;51.550;5.434;2022-09-09T12:08:53;9.38;;;3.38;;
61017;SDS011;48171;51.550;5.434;2022-09-09T12:11:24;10.93;;;4.25;;
61017;SDS011;48171;51.550;5.434;2022-09-09T12:13:57;10.68;;;3.42;;
61017;SDS011;48171;51.550;5.434;2022-09-09T12:21:39;10.13;;;3.85;;
61017;SDS011;48171;51.550;5.434;2022-09-09T12:24:20;5.20;;;3.40;;
61017;SDS011;48171;51.550;5.434;2022-09-09T12:26:58;8.80;;;3.55;;
61017;SDS011;48171;51.550;5.434;2022-09-09T12:29:43;9.43;;;3.70;;
61017;SDS011;48171;51.550;5.434;2022-09-09T12:32:20;9.07;;;3.38;;
61017;SDS011;48171;51.550;5.434;2022-09-09T12:34:53;6.57;;;3.08;;
61017;SDS011;48171;51.550;5.434;2022-09-09T12:39:57;8.77;;;3.17;;
61017;SDS011;48171;51.550;5.434;2022-09-09T12:42:24;11.63;;;3.25;;
61017;SDS011;48171;51.550;5.434;2022-09-09T12:44:51;9.55;;;3.38;;
61017;SDS011;48171;51.550;5.434;2022-09-09T12:47:18;8.55;;;3.00;;
61017;SDS011;48171;51.550;5.434;2022-09-09T12:49:47;9.43;;;3.40;;
61017;SDS011;48171;51.550;5.434;2022-09-09T12:54:55;7.07;;;3.05;;
61017;SDS011;48171;51.550;5.434;2022-09-09T12:57:22;9.18;;;2.95;;
61017;SDS011;48171;51.550;5.434;2022-09-09T12:59:52;8.88;;;3.20;;
61017;SDS011;48171;51.550;5.434;2022-09-09T13:02:28;11.40;;;3.95;;
61017;SDS011;48171;51.550;5.434;2022-09-09T13:04:54;10.80;;;4.13;;
61017;SDS011;48171;51.550;5.434;2022-09-09T13:07:32;11.60;;;4.50;;
61017;SDS011;48171;51.550;5.434;2022-09-09T13:09:57;15.18;;;4.35;;
61017;SDS011;48171;51.550;5.434;2022-09-09T13:12:22;11.68;;;4.18;;
61017;SDS011;48171;51.550;5.434;2022-09-09T13:14:49;10.13;;;4.00;;
61017;SDS011;48171;51.550;5.434;2022-09-09T13:17:26;13.02;;;3.63;;
61017;SDS011;48171;51.550;5.434;2022-09-09T13:19:56;9.30;;;4.30;;
61017;SDS011;48171;51.550;5.434;2022-09-09T13:22:33;13.75;;;4.20;;
61017;SDS011;48171;51.550;5.434;2022-09-09T13:27:36;7.15;;;3.75;;
61017;SDS011;48171;51.550;5.434;2022-09-09T13:33:04;15.13;;;4.43;;
61017;SDS011;48171;51.550;5.434;2022-09-09T13:35:31;10.52;;;4.47;;
61017;SDS011;48171;51.550;5.434;2022-09-09T13:37:58;8.02;;;4.32;;
61017;SDS011;48171;51.550;5.434;2022-09-09T13:40:31;12.07;;;4.22;;
61017;SDS011;48171;51.550;5.434;2022-09-09T13:42:56;11.63;;;4.13;;
61017;SDS011;48171;51.550;5.434;2022-09-09T13:45:24;11.50;;;3.78;;
61017;SDS011;48171;51.550;5.434;2022-09-09T13:47:53;9.02;;;3.60;;
61017;SDS011;48171;51.550;5.434;2022-09-09T13:50:21;7.30;;;3.45;;
61017;SDS011;48171;51.550;5.434;2022-09-09T13:52:49;11.68;;;3.67;;
61017;SDS011;48171;51.550;5.434;2022-09-09T13:55:18;7.13;;;3.30;;
61017;SDS011;48171;51.550;5.434;2022-09-09T13:57:53;9.13;;;3.03;;
61017;SDS011;48171;51.550;5.434;2022-09-09T14:00:20;8.23;;;3.25;;
61017;SDS011;48171;51.550;5.434;2022-09-09T14:02:46;7.15;;;2.70;;
61017;SDS011;48171;51.550;5.434;2022-09-09T14:05:13;8.27;;;2.70;;
61017;SDS011;48171;51.550;5.434;2022-09-09T14:07:38;7.53;;;2.80;;
61017;SDS011;48171;51.550;5.434;2022-09-09T14:10:05;8.32;;;3.33;;
61017;SDS011;48171;51.550;5.434;2022-09-09T14:12:32;7.95;;;3.17;;
61017;SDS011;48171;51.550;5.434;2022-09-09T14:14:58;9.10;;;3.00;;
61017;SDS011;48171;51.550;5.434;2022-09-09T14:17:24;5.68;;;2.90;;
61017;SDS011;48171;51.550;5.434;2022-09-09T14:19:54;7.07;;;3.15;;
61017;SDS011;48171;51.550;5.434;2022-09-09T14:22:19;7.55;;;3.47;;
61017;SDS011;48171;51.550;5.434;2022-09-09T14:24:45;7.70;;;3.33;;
61017;SDS011;48171;51.550;5.434;2022-09-09T14:27:10;9.50;;;3.30;;
61017;SDS011;48171;51.550;5.434;2022-09-09T14:29:35;6.18;;;3.08;;
61017;SDS011;48171;51.550;5.434;2022-09-09T14:32:01;7.32;;;3.05;;
61017;SDS011;48171;51.550;5.434;2022-09-09T14:34:26;9.60;;;2.88;;
61017;SDS011;48171;51.550;5.434;2022-09-09T14:36:51;4.63;;;2.90;;
61017;SDS011;48171;51.550;5.434;2022-09-09T14:39:17;6.40;;;2.72;;
61017;SDS011;48171;51.550;5.434;2022-09-09T14:41:42;7.57;;;2.75;;
61017;SDS011;48171;51.550;5.434;2022-09-09T14:44:08;7.38;;;2.70;;
61017;SDS011;48171;51.550;5.434;2022-09-09T14:46:33;5.28;;;2.38;;
61017;SDS011;48171;51.550;5.434;2022-09-09T14:48:59;5.45;;;2.45;;
61017;SDS011;48171;51.550;5.434;2022-09-09T14:51:24;6.03;;;2.63;;
61017;SDS011;48171;51.550;5.434;2022-09-09T14:53:53;6.90;;;2.70;;
61017;SDS011;48171;51.550;5.434;2022-09-09T14:56:23;7.57;;;2.83;;
61017;SDS011;48171;51.550;5.434;2022-09-09T14:58:52;5.03;;;2.20;;
61017;SDS011;48171;51.550;5.434;2022-09-09T15:01:22;7.97;;;2.45;;
61017;SDS011;48171;51.550;5.434;2022-09-09T15:03:55;10.27;;;2.70;;
61017;SDS011;48171;51.550;5.434;2022-09-09T15:06:23;7.30;;;2.72;;
61017;SDS011;48171;51.550;5.434;2022-09-09T15:08:50;7.47;;;2.90;;
61017;SDS011;48171;51.550;5.434;2022-09-09T15:11:17;5.60;;;2.20;;
61017;SDS011;48171;51.550;5.434;2022-09-09T15:13:43;5.35;;;2.30;;
61017;SDS011;48171;51.550;5.434;2022-09-09T15:16:10;5.60;;;2.40;;
61017;SDS011;48171;51.550;5.434;2022-09-09T15:18:38;6.15;;;2.65;;
61017;SDS011;48171;51.550;5.434;2022-09-09T15:21:13;8.50;;;2.85;;
61017;SDS011;48171;51.550;5.434;2022-09-09T15:23:46;6.05;;;2.92;;
61017;SDS011;48171;51.550;5.434;2022-09-09T15:26:13;7.60;;;3.20;;
61017;SDS011;48171;51.550;5.434;2022-09-09T15:28:42;6.38;;;2.45;;
61017;SDS011;48171;51.550;5.434;2022-09-09T15:34:00;6.13;;;1.63;;
61017;SDS011;48171;51.550;5.434;2022-09-09T15:38:57;4.00;;;1.60;;
61017;SDS011;48171;51.550;5.434;2022-09-09T15:41:24;4.50;;;1.60;;
61017;SDS011;48171;51.550;5.434;2022-09-09T15:43:51;4.20;;;1.70;;
61017;SDS011;48171;51.550;5.434;2022-09-09T15:46:32;4.53;;;1.88;;
61017;SDS011;48171;51.550;5.434;2022-09-09T15:51:59;5.43;;;1.90;;
61017;SDS011;48171;51.550;5.434;2022-09-09T15:54:28;4.40;;;2.00;;
61017;SDS011;48171;51.550;5.434;2022-09-09T15:56:58;4.95;;;1.88;;
61017;SDS011;48171;51.550;5.434;2022-09-09T15:59:25;6.28;;;1.98;;
61017;SDS011;48171;51.550;5.434;2022-09-09T16:01:53;2.88;;;1.98;;
61017;SDS011;48171;51.550;5.434;2022-09-09T16:04:19;3.85;;;2.00;;
61017;SDS011;48171;51.550;5.434;2022-09-09T16:06:54;6.28;;;2.30;;
61017;SDS011;48171;51.550;5.434;2022-09-09T16:09:23;5.30;;;2.03;;
61017;SDS011;48171;51.550;5.434;2022-09-09T16:11:48;4.47;;;2.10;;
61017;SDS011;48171;51.550;5.434;2022-09-09T16:14:14;6.38;;;2.20;;
61017;SDS011;48171;51.550;5.434;2022-09-09T16:16:40;4.88;;;2.55;;
61017;SDS011;48171;51.550;5.434;2022-09-09T16:19:07;4.53;;;2.15;;
61017;SDS011;48171;51.550;5.434;2022-09-09T16:21:38;6.38;;;2.60;;
61017;SDS011;48171;51.550;5.434;2022-09-09T16:24:06;6.65;;;2.83;;
61017;SDS011;48171;51.550;5.434;2022-09-09T16:26:35;7.20;;;2.83;;
61017;SDS011;48171;51.550;5.434;2022-09-09T16:29:03;4.70;;;2.80;;
61017;SDS011;48171;51.550;5.434;2022-09-09T16:31:28;7.72;;;3.10;;
61017;SDS011;48171;51.550;5.434;2022-09-09T16:33:55;9.20;;;3.20;;
61017;SDS011;48171;51.550;5.434;2022-09-09T16:36:22;6.22;;;3.47;;
61017;SDS011;48171;51.550;5.434;2022-09-09T16:38:51;7.22;;;3.35;;
61017;SDS011;48171;51.550;5.434;2022-09-09T16:41:19;8.13;;;3.67;;
61017;SDS011;48171;51.550;5.434;2022-09-09T16:43:44;9.75;;;4.07;;
61017;SDS011;48171;51.550;5.434;2022-09-09T16:46:13;8.73;;;4.32;;
61017;SDS011;48171;51.550;5.434;2022-09-09T16:48:41;10.85;;;4.53;;
61017;SDS011;48171;51.550;5.434;2022-09-09T16:51:09;8.18;;;4.50;;
61017;SDS011;48171;51.550;5.434;2022-09-09T16:53:39;8.85;;;4.32;;
61017;SDS011;48171;51.550;5.434;2022-09-09T16:56:05;7.35;;;4.35;;
61017;SDS011;48171;51.550;5.434;2022-09-09T16:58:31;6.25;;;4.18;;
61017;SDS011;48171;51.550;5.434;2022-09-09T17:01:00;7.75;;;3.97;;
61017;SDS011;48171;51.550;5.434;2022-09-09T17:03:28;8.98;;;3.80;;
61017;SDS011;48171;51.550;5.434;2022-09-09T17:05:53;3.97;;;3.08;;
61017;SDS011;48171;51.550;5.434;2022-09-09T17:08:18;5.40;;;3.00;;
61017;SDS011;48171;51.550;5.434;2022-09-09T17:10:44;5.72;;;3.00;;